Time;durP1;ratioP1;P1;durP2;ratioP2;P2;SDS_P1;SDS_P2;PMS_P1;PMS_P2;Temp;Humidity;BMP_temperature;BMP_pressure;BME280_temperature;BME280_humidity;BME280_pressure;Samples;Min_cycle;Max_cycle;Signal;HPM_P1;HPM_P2
2023/06/15 00:00:09;;;;;;;7.45;2.90;;;;;;;;;;4973970;28;20050;-61
2023/06/15 00:02:35;;;;;;;7.45;2.80;;;;;;;;;;4962745;28;20070;-61
2023/06/15 00:05:01;;;;;;;6.00;3.10;;;;;;;;;;4973810;28;20421;-61
2023/06/15 00:07:27;;;;;;;7.05;2.75;;;;;;;;;;4954007;28;20050;-60
2023/06/15 00:09:54;;;;;;;6.68;2.80;;;;;;;;;;4951612;28;20493;-61
2023/06/15 00:12:20;;;;;;;6.00;2.28;;;;;;;;;;4972704;28;20518;-60
2023/06/15 00:14:46;;;;;;;8.65;2.92;;;;;;;;;;4938027;28;20042;-61
2023/06/15 00:17:14;;;;;;;8.05;2.92;;;;;;;;;;4972887;28;20578;-60
2023/06/15 00:19:41;;;;;;;7.72;2.78;;;;;;;;;;4970515;28;20085;-60
2023/06/15 00:22:15;;;;;;;5.85;2.53;;;;;;;;;;4972271;28;20123;-61
2023/06/15 00:24:41;;;;;;;5.93;2.80;;;;;;;;;;4970236;28;20138;-60
2023/06/15 00:27:09;;;;;;;6.70;2.60;;;;;;;;;;4972834;28;20042;-60
2023/06/15 00:29:35;;;;;;;6.47;2.67;;;;;;;;;;4969775;28;20043;-60
2023/06/15 00:32:01;;;;;;;6.22;2.70;;;;;;;;;;4952867;28;20038;-61
2023/06/15 00:34:27;;;;;;;7.93;2.75;;;;;;;;;;4966982;28;20110;-61
2023/06/15 00:36:53;;;;;;;6.43;2.88;;;;;;;;;;4966174;28;20035;-61
2023/06/15 00:39:19;;;;;;;7.47;3.03;;;;;;;;;;4972597;28;20070;-61
2023/06/15 00:41:45;;;;;;;8.55;3.08;;;;;;;;;;4969136;28;20038;-61
2023/06/15 00:44:11;;;;;;;7.30;3.13;;;;;;;;;;4970391;28;20511;-61
2023/06/15 00:46:38;;;;;;;5.43;2.72;;;;;;;;;;4970652;28;20055;-60
2023/06/15 00:49:05;;;;;;;6.25;3.03;;;;;;;;;;4954803;28;20186;-60
2023/06/15 00:51:31;;;;;;;7.15;2.90;;;;;;;;;;4952039;28;20074;-61
2023/06/15 00:53:59;;;;;;;6.15;2.67;;;;;;;;;;4971638;28;20570;-61
2023/06/15 00:56:29;;;;;;;6.50;2.80;;;;;;;;;;4971960;28;20039;-60
2023/06/15 00:58:55;;;;;;;5.60;2.60;;;;;;;;;;4970399;28;20050;-60
2023/06/15 01:01:21;;;;;;;6.10;3.13;;;;;;;;;;4970765;28;20051;-60
2023/06/15 01:03:47;;;;;;;6.53;2.88;;;;;;;;;;4951989;28;20082;-60
2023/06/15 01:06:16;;;;;;;6.65;2.67;;;;;;;;;;4972074;28;20141;-60
2023/06/15 01:08:44;;;;;;;11.55;3.45;;;;;;;;;;4949053;28;20977;-60
2023/06/15 01:11:10;;;;;;;6.47;3.30;;;;;;;;;;4971667;28;20035;-60
2023/06/15 01:13:36;;;;;;;7.88;3.30;;;;;;;;;;4967328;28;20039;-61
2023/06/15 01:16:05;;;;;;;10.88;3.10;;;;;;;;;;4971740;28;20113;-61
2023/06/15 01:18:33;;;;;;;8.82;3.60;;;;;;;;;;4970062;28;20041;-61
2023/06/15 01:21:01;;;;;;;8.48;3.05;;;;;;;;;;4968354;28;20074;-60
2023/06/15 01:23:30;;;;;;;6.93;3.25;;;;;;;;;;4968948;28;20405;-60
2023/06/15 01:26:00;;;;;;;6.47;3.33;;;;;;;;;;4949910;28;20049;-61
2023/06/15 01:28:26;;;;;;;7.63;3.22;;;;;;;;;;4971934;28;20497;-61
2023/06/15 01:30:54;;;;;;;8.98;3.63;;;;;;;;;;4967935;28;20077;-61
2023/06/15 01:33:21;;;;;;;6.68;3.35;;;;;;;;;;4971721;28;20047;-61
2023/06/15 01:35:47;;;;;;;7.05;3.30;;;;;;;;;;4950107;28;20047;-61
2023/06/15 01:38:13;;;;;;;7.38;3.13;;;;;;;;;;4970348;28;20146;-61
2023/06/15 01:40:41;;;;;;;6.35;3.10;;;;;;;;;;4970454;28;21724;-60
2023/06/15 01:43:10;;;;;;;6.20;3.00;;;;;;;;;;4951414;28;20100;-60
2023/06/15 01:45:38;;;;;;;7.90;3.80;;;;;;;;;;4970601;28;20058;-60
2023/06/15 01:48:04;;;;;;;7.35;3.20;;;;;;;;;;4968641;28;20106;-60
2023/06/15 01:50:31;;;;;;;8.93;3.45;;;;;;;;;;4971378;28;20488;-61
2023/06/15 01:52:57;;;;;;;7.97;3.65;;;;;;;;;;4967545;28;20086;-61
2023/06/15 01:55:24;;;;;;;7.95;3.25;;;;;;;;;;4971760;28;20075;-61
2023/06/15 01:57:50;;;;;;;7.70;3.92;;;;;;;;;;4969213;28;20058;-60
2023/06/15 02:00:16;;;;;;;8.05;3.60;;;;;;;;;;4953989;28;20074;-61
2023/06/15 02:02:42;;;;;;;7.85;3.65;;;;;;;;;;4952193;28;20634;-60
2023/06/15 02:05:08;;;;;;;9.32;3.40;;;;;;;;;;4969765;28;20055;-60
2023/06/15 02:07:34;;;;;;;7.13;4.00;;;;;;;;;;4970347;28;20061;-60
2023/06/15 02:10:00;;;;;;;7.22;3.30;;;;;;;;;;4967863;28;20125;-60
2023/06/15 02:12:26;;;;;;;7.30;3.53;;;;;;;;;;4966810;28;20039;-60
2023/06/15 02:14:52;;;;;;;7.68;3.60;;;;;;;;;;4952351;28;20042;-60
2023/06/15 02:17:18;;;;;;;7.93;3.55;;;;;;;;;;4971020;28;20050;-59
2023/06/15 02:19:47;;;;;;;7.20;3.80;;;;;;;;;;4967953;28;20063;-60
2023/06/15 02:22:15;;;;;;;7.78;3.90;;;;;;;;;;4948901;28;20097;-60
2023/06/15 02:24:41;;;;;;;6.32;3.20;;;;;;;;;;4949834;28;20078;-60
2023/06/15 02:27:07;;;;;;;7.22;3.72;;;;;;;;;;4949107;28;20078;-60
2023/06/15 02:29:33;;;;;;;10.25;4.15;;;;;;;;;;4970633;28;20143;-60
2023/06/15 02:31:59;;;;;;;8.20;3.60;;;;;;;;;;4948151;28;20400;-60
2023/06/15 02:34:25;;;;;;;8.50;3.95;;;;;;;;;;4939020;28;20047;-60
2023/06/15 02:36:53;;;;;;;9.38;4.20;;;;;;;;;;4972037;28;20113;-60
2023/06/15 02:39:19;;;;;;;8.45;3.80;;;;;;;;;;4954451;28;20046;-60
2023/06/15 02:41:45;;;;;;;9.88;4.32;;;;;;;;;;4973567;28;20640;-60
2023/06/15 02:44:11;;;;;;;7.18;3.95;;;;;;;;;;4958724;28;20077;-60
2023/06/15 02:46:37;;;;;;;7.57;4.45;;;;;;;;;;4973998;28;20050;-60
2023/06/15 02:49:04;;;;;;;8.55;3.80;;;;;;;;;;4971365;28;20508;-60
2023/06/15 02:51:31;;;;;;;9.68;4.68;;;;;;;;;;4974203;28;20045;-60
2023/06/15 02:53:57;;;;;;;7.68;3.90;;;;;;;;;;4971308;28;20058;-60
2023/06/15 02:56:23;;;;;;;6.88;3.85;;;;;;;;;;4941240;28;20038;-60
2023/06/15 02:58:53;;;;;;;7.25;4.00;;;;;;;;;;4972168;28;20045;-60
2023/06/15 03:01:20;;;;;;;7.78;4.03;;;;;;;;;;4973201;28;20085;-60
2023/06/15 03:03:46;;;;;;;7.18;4.25;;;;;;;;;;4965017;28;20050;-60
2023/06/15 03:06:14;;;;;;;8.75;4.20;;;;;;;;;;4966403;28;20460;-59
2023/06/15 03:08:41;;;;;;;6.90;3.83;;;;;;;;;;4954149;28;20057;-60
2023/06/15 03:11:07;;;;;;;8.38;4.30;;;;;;;;;;4953575;28;20047;-60
2023/06/15 03:13:33;;;;;;;7.75;4.25;;;;;;;;;;4974084;28;20043;-60
2023/06/15 03:16:02;;;;;;;9.48;4.38;;;;;;;;;;4967713;28;20066;-60
2023/06/15 03:18:29;;;;;;;8.98;4.32;;;;;;;;;;4974122;28;20042;-60
2023/06/15 03:20:57;;;;;;;8.25;4.85;;;;;;;;;;4955555;28;20072;-60
2023/06/15 03:23:23;;;;;;;8.63;4.38;;;;;;;;;;4972829;28;20505;-60
2023/06/15 03:25:49;;;;;;;7.88;4.15;;;;;;;;;;4972285;28;20054;-59
2023/06/15 03:28:16;;;;;;;8.77;4.90;;;;;;;;;;4966982;28;20174;-59
2023/06/15 03:30:46;;;;;;;9.82;4.68;;;;;;;;;;4956067;28;20054;-60
2023/06/15 03:33:13;;;;;;;9.50;5.15;;;;;;;;;;4977829;23;20062;-58
2023/06/15 03:35:40;;;;;;;7.78;4.85;;;;;;;;;;4957549;28;20050;-58
2023/06/15 03:38:08;;;;;;;9.18;5.13;;;;;;;;;;4957961;28;20047;-58
2023/06/15 03:40:38;;;;;;;8.77;4.78;;;;;;;;;;4953712;28;20528;-58
2023/06/15 03:43:04;;;;;;;10.80;4.55;;;;;;;;;;4935840;28;20051;-56
2023/06/15 03:45:30;;;;;;;8.88;4.20;;;;;;;;;;4954446;28;20043;-59
2023/06/15 03:47:56;;;;;;;10.70;4.80;;;;;;;;;;4953904;28;20049;-58
2023/06/15 03:50:22;;;;;;;7.60;4.65;;;;;;;;;;4958384;28;20073;-58
2023/06/15 03:52:48;;;;;;;9.88;5.10;;;;;;;;;;4954479;28;20498;-58
2023/06/15 03:55:14;;;;;;;10.18;5.20;;;;;;;;;;4957246;28;20126;-56
2023/06/15 03:57:40;;;;;;;8.73;5.03;;;;;;;;;;4955692;28;20039;-59
2023/06/15 04:00:07;;;;;;;8.75;4.45;;;;;;;;;;4940075;29;20039;-57
2023/06/15 04:02:33;;;;;;;7.32;4.40;;;;;;;;;;4956634;28;20067;-57
2023/06/15 04:05:02;;;;;;;9.00;4.38;;;;;;;;;;4951819;28;20039;-54
2023/06/15 04:07:29;;;;;;;9.27;4.18;;;;;;;;;;4957592;28;20067;-57
2023/06/15 04:09:55;;;;;;;8.48;5.50;;;;;;;;;;4959699;28;20047;-59
2023/06/15 04:12:21;;;;;;;10.07;4.75;;;;;;;;;;5018948;23;20047;-60
2023/06/15 04:14:47;;;;;;;8.77;4.68;;;;;;;;;;4949263;28;20078;-60
2023/06/15 04:17:14;;;;;;;6.75;4.18;;;;;;;;;;4963833;28;20501;-60
2023/06/15 04:19:41;;;;;;;8.13;4.68;;;;;;;;;;4959920;28;20386;-60
2023/06/15 04:22:07;;;;;;;9.38;4.50;;;;;;;;;;4963259;28;20492;-60
2023/06/15 04:24:33;;;;;;;9.43;5.18;;;;;;;;;;4961224;28;20035;-60
2023/06/15 04:26:59;;;;;;;9.27;4.43;;;;;;;;;;4941804;28;20054;-61
2023/06/15 04:29:29;;;;;;;7.22;4.65;;;;;;;;;;4967878;28;20050;-61
2023/06/15 04:31:57;;;;;;;8.00;4.90;;;;;;;;;;4945153;28;20171;-61
2023/06/15 04:34:24;;;;;;;8.65;5.10;;;;;;;;;;4948298;28;20102;-61
2023/06/15 04:36:50;;;;;;;10.90;5.38;;;;;;;;;;4970848;28;20049;-61
2023/06/15 04:39:17;;;;;;;9.50;4.55;;;;;;;;;;4967399;28;20039;-61
2023/06/15 04:44:17;;;;;;;10.25;5.32;;;;;;;;;;4992519;23;20085;-84
2023/06/15 04:46:46;;;;;;;8.23;5.15;;;;;;;;;;4950842;28;20042;-83
2023/06/15 04:49:25;;;;;;;8.52;4.90;;;;;;;;;;4954016;28;20538;-82
2023/06/15 04:51:55;;;;;;;8.23;4.78;;;;;;;;;;4951139;28;20078;-84
2023/06/15 04:54:25;;;;;;;8.40;4.78;;;;;;;;;;4933783;28;20101;-83
2023/06/15 04:56:59;;;;;;;9.02;4.97;;;;;;;;;;4949267;28;20070;-84
2023/06/15 04:59:26;;;;;;;11.10;4.90;;;;;;;;;;4931767;28;20035;-83
2023/06/15 05:02:06;;;;;;;9.40;4.60;;;;;;;;;;4949635;28;20070;-85
2023/06/15 05:04:58;;;;;;;8.30;4.32;;;;;;;;;;4932526;28;20039;-85
2023/06/15 05:07:35;;;;;;;10.45;5.28;;;;;;;;;;4941532;29;20047;-87
2023/06/15 05:10:28;;;;;;;8.52;4.72;;;;;;;;;;4935616;28;20495;-85
2023/06/15 05:12:58;;;;;;;11.77;5.65;;;;;;;;;;4928202;23;20163;-69
2023/06/15 05:15:24;;;;;;;9.35;4.60;;;;;;;;;;4971073;28;20078;-69
2023/06/15 05:17:50;;;;;;;10.77;4.85;;;;;;;;;;5035479;23;20054;-58
2023/06/15 05:20:16;;;;;;;10.05;5.50;;;;;;;;;;4943618;29;20134;-57
2023/06/15 05:22:42;;;;;;;8.20;4.30;;;;;;;;;;4952735;28;20043;-60
2023/06/15 05:25:09;;;;;;;9.05;4.57;;;;;;;;;;4952744;28;20122;-57
2023/06/15 05:27:36;;;;;;;8.70;4.30;;;;;;;;;;4952653;28;20035;-57
2023/06/15 05:30:03;;;;;;;9.45;5.78;;;;;;;;;;4936132;28;20063;-58
2023/06/15 05:32:29;;;;;;;8.50;4.70;;;;;;;;;;4951880;28;20036;-58
2023/06/15 05:34:55;;;;;;;9.65;4.97;;;;;;;;;;4935835;29;20047;-59
2023/06/15 05:37:21;;;;;;;11.55;4.80;;;;;;;;;;4953205;28;20091;-55
2023/06/15 05:39:47;;;;;;;10.10;5.30;;;;;;;;;;5045363;23;20046;-65
2023/06/15 05:42:13;;;;;;;10.95;4.50;;;;;;;;;;4968296;28;20377;-65
2023/06/15 05:44:43;;;;;;;9.30;5.70;;;;;;;;;;4929213;29;20531;-66
2023/06/15 05:47:11;;;;;;;7.90;4.30;;;;;;;;;;4953401;28;20047;-65
2023/06/15 05:49:37;;;;;;;9.38;5.15;;;;;;;;;;4955550;28;20098;-65
2023/06/15 05:52:03;;;;;;;11.75;4.70;;;;;;;;;;5064743;23;20046;-52
2023/06/15 05:54:29;;;;;;;9.88;4.57;;;;;;;;;;4959088;28;20039;-54
2023/06/15 05:56:56;;;;;;;9.35;4.93;;;;;;;;;;4952540;29;20581;-52
2023/06/15 05:59:22;;;;;;;10.57;5.35;;;;;;;;;;4930786;29;20466;-55
2023/06/15 06:01:48;;;;;;;9.63;4.82;;;;;;;;;;4934282;29;20043;-53
2023/06/15 06:04:14;;;;;;;10.18;4.20;;;;;;;;;;4946286;28;20048;-55
2023/06/15 06:06:40;;;;;;;6.50;4.07;;;;;;;;;;4923638;28;20053;-55
2023/06/15 06:09:06;;;;;;;8.85;4.03;;;;;;;;;;4947494;29;20110;-56
2023/06/15 06:11:32;;;;;;;7.88;3.97;;;;;;;;;;4951377;29;20043;-55
2023/06/15 06:13:58;;;;;;;9.10;4.28;;;;;;;;;;4951032;28;20043;-54
2023/06/15 06:16:24;;;;;;;12.55;4.95;;;;;;;;;;4951586;28;20039;-52
2023/06/15 06:18:50;;;;;;;8.35;3.63;;;;;;;;;;4930999;29;20074;-54
2023/06/15 06:21:16;;;;;;;11.25;4.10;;;;;;;;;;4981416;23;20063;-54
2023/06/15 06:23:42;;;;;;;8.48;3.40;;;;;;;;;;4923909;29;20052;-54
2023/06/15 06:26:08;;;;;;;9.35;3.80;;;;;;;;;;4937140;29;20055;-52
2023/06/15 06:28:35;;;;;;;8.80;3.58;;;;;;;;;;4938653;29;20040;-53
2023/06/15 06:31:01;;;;;;;6.85;3.20;;;;;;;;;;4935497;29;20083;-55
2023/06/15 06:33:27;;;;;;;9.02;3.80;;;;;;;;;;4920442;29;20075;-55
2023/06/15 06:35:53;;;;;;;10.80;5.30;;;;;;;;;;4940451;29;20089;-55
2023/06/15 06:38:19;;;;;;;9.18;5.20;;;;;;;;;;4914020;29;20049;-54
2023/06/15 06:40:45;;;;;;;9.40;4.13;;;;;;;;;;4906995;29;20047;-52
2023/06/15 06:43:11;;;;;;;6.43;3.03;;;;;;;;;;4928866;29;20506;-53
2023/06/15 06:45:37;;;;;;;8.32;3.33;;;;;;;;;;4920137;29;20135;-55
2023/06/15 06:48:03;;;;;;;105.45;13.50;;;;;;;;;;4927466;29;20040;-54
2023/06/15 06:50:29;;;;;;;240.77;35.78;;;;;;;;;;4924550;29;20108;-53
2023/06/15 06:52:55;;;;;;;69.75;13.88;;;;;;;;;;4942338;29;20050;-55
2023/06/15 06:55:21;;;;;;;29.10;7.75;;;;;;;;;;4942975;29;20050;-55
2023/06/15 06:57:47;;;;;;;14.40;4.10;;;;;;;;;;4946111;29;20074;-55
2023/06/15 07:00:14;;;;;;;7.78;3.08;;;;;;;;;;4926742;29;20063;-55
2023/06/15 07:02:40;;;;;;;9.48;3.55;;;;;;;;;;4923069;29;20126;-54
2023/06/15 07:05:06;;;;;;;6.68;3.05;;;;;;;;;;4915663;29;20048;-55
2023/06/15 07:07:32;;;;;;;9.82;3.15;;;;;;;;;;4935665;29;20052;-55
2023/06/15 07:09:58;;;;;;;9.60;3.13;;;;;;;;;;4932804;29;20063;-54
2023/06/15 07:12:24;;;;;;;7.53;3.20;;;;;;;;;;4933900;29;20083;-55
2023/06/15 07:14:50;;;;;;;10.93;3.58;;;;;;;;;;4932563;29;20048;-55
2023/06/15 07:17:16;;;;;;;7.93;3.20;;;;;;;;;;4945224;29;20039;-55
2023/06/15 07:19:42;;;;;;;10.65;3.40;;;;;;;;;;4930298;29;20127;-54
2023/06/15 07:22:08;;;;;;;10.32;2.97;;;;;;;;;;4946954;29;20126;-55
2023/06/15 07:24:35;;;;;;;21.40;3.25;;;;;;;;;;4909002;29;20062;-55
2023/06/15 07:27:01;;;;;;;7.38;3.05;;;;;;;;;;4934284;29;20048;-53
2023/06/15 07:29:27;;;;;;;7.82;3.05;;;;;;;;;;4946848;29;20139;-54
2023/06/15 07:31:53;;;;;;;8.95;3.03;;;;;;;;;;4946798;29;20129;-53
2023/06/15 07:34:19;;;;;;;6.65;2.90;;;;;;;;;;4942895;29;20110;-52
2023/06/15 07:36:45;;;;;;;7.55;2.85;;;;;;;;;;4945607;29;20383;-55
2023/06/15 07:39:11;;;;;;;7.57;3.15;;;;;;;;;;4933622;29;20626;-52
2023/06/15 07:41:38;;;;;;;6.35;2.83;;;;;;;;;;4929663;29;20122;-55
2023/06/15 07:44:04;;;;;;;6.03;2.85;;;;;;;;;;4943528;29;20047;-55
2023/06/15 07:46:30;;;;;;;6.20;2.65;;;;;;;;;;4933863;29;20051;-53
2023/06/15 07:48:56;;;;;;;7.60;2.85;;;;;;;;;;4938041;29;20039;-51
2023/06/15 07:51:22;;;;;;;6.28;2.60;;;;;;;;;;4951981;29;20043;-53
2023/06/15 07:53:48;;;;;;;7.05;2.95;;;;;;;;;;4929488;29;20047;-51
2023/06/15 07:56:15;;;;;;;6.03;2.60;;;;;;;;;;4940005;29;20040;-52
2023/06/15 07:58:41;;;;;;;5.97;2.28;;;;;;;;;;4907912;29;20134;-52
2023/06/15 08:01:07;;;;;;;6.75;2.63;;;;;;;;;;4920406;29;20088;-52
2023/06/15 08:03:33;;;;;;;9.38;3.03;;;;;;;;;;4916075;29;20525;-52
2023/06/15 08:05:59;;;;;;;9.90;3.38;;;;;;;;;;4927712;29;20096;-51
2023/06/15 08:08:25;;;;;;;9.90;3.22;;;;;;;;;;4935830;29;20449;-51
2023/06/15 08:10:51;;;;;;;6.15;2.72;;;;;;;;;;4946264;29;20045;-51
2023/06/15 08:13:18;;;;;;;7.07;2.55;;;;;;;;;;4933382;29;20043;-52
2023/06/15 08:15:45;;;;;;;9.48;3.28;;;;;;;;;;4931162;29;20099;-53
2023/06/15 08:18:11;;;;;;;6.15;2.60;;;;;;;;;;4945439;29;20048;-51
2023/06/15 08:20:37;;;;;;;11.75;3.80;;;;;;;;;;4925233;29;20037;-54
2023/06/15 08:23:03;;;;;;;13.15;3.55;;;;;;;;;;4930238;29;20039;-53
2023/06/15 08:25:29;;;;;;;11.95;2.90;;;;;;;;;;4937033;29;20031;-54
2023/06/15 08:27:55;;;;;;;7.07;3.47;;;;;;;;;;4916003;29;20083;-52
2023/06/15 08:30:21;;;;;;;6.50;2.78;;;;;;;;;;4908203;29;20062;-53
2023/06/15 08:32:47;;;;;;;5.78;2.33;;;;;;;;;;4927847;29;20123;-55
2023/06/15 08:35:14;;;;;;;5.95;2.40;;;;;;;;;;4937986;29;20414;-51
2023/06/15 08:37:40;;;;;;;5.53;2.60;;;;;;;;;;4929405;29;20043;-52
2023/06/15 08:40:08;;;;;;;5.75;2.40;;;;;;;;;;4940236;29;20476;-52
2023/06/15 08:42:34;;;;;;;5.22;2.60;;;;;;;;;;4926577;29;20047;-51
2023/06/15 08:45:03;;;;;;;6.97;2.90;;;;;;;;;;4922494;29;20044;-54
2023/06/15 08:47:29;;;;;;;7.28;2.55;;;;;;;;;;4929692;29;20450;-51
2023/06/15 08:49:55;;;;;;;7.22;2.90;;;;;;;;;;4929453;29;20044;-51
2023/06/15 08:52:23;;;;;;;6.70;2.88;;;;;;;;;;4941929;29;20043;-54
2023/06/15 08:54:53;;;;;;;5.80;2.85;;;;;;;;;;4916203;29;20078;-51
2023/06/15 08:57:18;;;;;;;7.47;2.28;;;;;;;;;;4949701;29;20035;-51
2023/06/15 08:59:45;;;;;;;7.32;2.38;;;;;;;;;;4929214;29;20036;-52
2023/06/15 09:02:15;;;;;;;9.85;3.58;;;;;;;;;;4931651;29;20040;-54
2023/06/15 09:04:41;;;;;;;8.55;2.72;;;;;;;;;;4938389;29;20171;-54
2023/06/15 09:07:09;;;;;;;6.38;2.33;;;;;;;;;;4929353;29;20053;-55
2023/06/15 09:09:35;;;;;;;7.25;2.40;;;;;;;;;;4934596;29;20052;-55
2023/06/15 09:12:01;;;;;;;7.03;2.50;;;;;;;;;;4929440;29;20049;-55
2023/06/15 09:14:27;;;;;;;6.22;2.83;;;;;;;;;;4936401;29;20040;-55
2023/06/15 09:16:53;;;;;;;6.70;2.50;;;;;;;;;;4893086;29;20481;-55
2023/06/15 09:19:20;;;;;;;6.82;2.50;;;;;;;;;;4927425;29;20073;-55
2023/06/15 09:21:53;;;;;;;5.40;2.40;;;;;;;;;;4921858;29;20046;-53
2023/06/15 09:24:22;;;;;;;8.43;2.47;;;;;;;;;;4936559;29;20047;-55
2023/06/15 09:26:48;;;;;;;5.63;2.67;;;;;;;;;;4941077;29;20039;-55
2023/06/15 09:29:14;;;;;;;6.68;2.90;;;;;;;;;;4935235;29;20040;-55
2023/06/15 09:31:41;;;;;;;6.20;2.60;;;;;;;;;;4937184;29;20040;-55
2023/06/15 09:34:08;;;;;;;5.53;2.30;;;;;;;;;;4910497;29;20051;-54
2023/06/15 09:36:40;;;;;;;9.02;2.63;;;;;;;;;;4928904;29;20114;-52
2023/06/15 09:39:09;;;;;;;5.85;2.35;;;;;;;;;;4921044;29;20055;-55
2023/06/15 09:41:35;;;;;;;7.15;3.33;;;;;;;;;;4937655;29;20062;-52
2023/06/15 09:44:02;;;;;;;6.80;2.53;;;;;;;;;;4911337;29;20067;-55
2023/06/15 09:46:29;;;;;;;6.55;2.47;;;;;;;;;;4938098;29;20044;-54
2023/06/15 09:48:55;;;;;;;6.15;2.78;;;;;;;;;;4924185;29;20130;-55
2023/06/15 09:51:23;;;;;;;9.18;3.05;;;;;;;;;;4912469;29;20120;-55
2023/06/15 09:53:51;;;;;;;8.10;2.50;;;;;;;;;;4913862;29;20059;-54
2023/06/15 09:56:17;;;;;;;6.90;2.38;;;;;;;;;;4932294;29;20463;-54
2023/06/15 09:58:43;;;;;;;7.78;2.80;;;;;;;;;;4934235;29;20042;-55
2023/06/15 10:01:10;;;;;;;7.70;3.15;;;;;;;;;;4930903;29;20494;-55
2023/06/15 10:03:36;;;;;;;8.10;2.58;;;;;;;;;;4933050;29;20043;-55
2023/06/15 10:06:06;;;;;;;7.80;2.70;;;;;;;;;;4928365;29;20378;-55
2023/06/15 10:08:33;;;;;;;9.65;3.05;;;;;;;;;;4935113;29;20114;-54
2023/06/15 10:11:00;;;;;;;7.10;2.65;;;;;;;;;;4947036;29;20139;-53
2023/06/15 10:13:32;;;;;;;6.97;2.78;;;;;;;;;;4939959;29;20067;-55
2023/06/15 10:15:59;;;;;;;6.57;2.70;;;;;;;;;;4895879;29;20068;-54
2023/06/15 10:18:26;;;;;;;5.55;2.35;;;;;;;;;;4936677;29;20043;-55
2023/06/15 10:20:54;;;;;;;7.65;2.53;;;;;;;;;;4945097;29;20058;-55
2023/06/15 10:23:25;;;;;;;7.18;2.50;;;;;;;;;;4933453;29;20053;-55
2023/06/15 10:25:55;;;;;;;7.40;2.53;;;;;;;;;;4936373;29;20549;-55
2023/06/15 10:28:24;;;;;;;8.13;2.83;;;;;;;;;;4933613;29;20075;-55
2023/06/15 10:31:00;;;;;;;10.55;2.90;;;;;;;;;;4918572;29;20043;-55
2023/06/15 10:33:26;;;;;;;10.77;3.03;;;;;;;;;;4912559;29;20570;-55
2023/06/15 10:36:03;;;;;;;9.60;2.45;;;;;;;;;;4934806;29;20039;-55
2023/06/15 10:38:41;;;;;;;5.07;2.70;;;;;;;;;;4908575;29;20126;-53
2023/06/15 10:41:07;;;;;;;5.50;2.75;;;;;;;;;;4933440;29;20047;-55
2023/06/15 10:43:33;;;;;;;7.13;2.58;;;;;;;;;;4928185;29;20051;-53
2023/06/15 10:46:02;;;;;;;6.88;2.60;;;;;;;;;;4932221;29;20039;-55
2023/06/15 10:48:28;;;;;;;8.63;2.70;;;;;;;;;;4918889;29;20048;-54
2023/06/15 10:51:08;;;;;;;6.60;2.50;;;;;;;;;;4941037;29;20050;-54
2023/06/15 10:53:39;;;;;;;6.97;3.05;;;;;;;;;;4923298;29;20048;-54
2023/06/15 10:56:09;;;;;;;6.22;2.97;;;;;;;;;;4932428;29;20130;-55
2023/06/15 10:58:55;;;;;;;8.43;3.03;;;;;;;;;;4940954;29;20095;-55
2023/06/15 11:01:33;;;;;;;7.03;2.80;;;;;;;;;;4918146;29;20421;-54
2023/06/15 11:04:25;;;;;;;6.43;2.85;;;;;;;;;;4892471;29;20046;-55
2023/06/15 11:06:58;;;;;;;6.72;2.40;;;;;;;;;;4922781;29;20047;-55
2023/06/15 11:09:31;;;;;;;6.07;2.40;;;;;;;;;;4930449;29;20135;-55
2023/06/15 11:12:00;;;;;;;6.00;2.65;;;;;;;;;;4946376;29;20058;-55
2023/06/15 11:14:29;;;;;;;9.43;3.30;;;;;;;;;;4899547;29;20054;-55
2023/06/15 11:17:10;;;;;;;6.68;3.45;;;;;;;;;;4934078;29;20043;-55
2023/06/15 11:19:49;;;;;;;5.95;2.60;;;;;;;;;;4931903;29;20521;-55
2023/06/15 11:22:28;;;;;;;6.72;2.70;;;;;;;;;;4936545;29;20039;-55
2023/06/15 11:25:03;;;;;;;6.03;2.90;;;;;;;;;;4944410;29;20039;-55
2023/06/15 11:27:36;;;;;;;6.72;2.67;;;;;;;;;;4912941;29;20142;-55
2023/06/15 11:30:06;;;;;;;6.35;2.65;;;;;;;;;;4934041;29;20401;-55
2023/06/15 11:32:35;;;;;;;6.28;2.40;;;;;;;;;;4910631;29;20147;-55
2023/06/15 11:35:03;;;;;;;5.60;2.67;;;;;;;;;;4931874;29;20067;-55
2023/06/15 11:37:32;;;;;;;6.75;2.83;;;;;;;;;;4921135;29;20052;-55
2023/06/15 11:40:06;;;;;;;6.03;2.42;;;;;;;;;;4927694;29;20047;-55
2023/06/15 11:42:35;;;;;;;6.15;2.92;;;;;;;;;;4925603;29;20095;-55
2023/06/15 11:45:07;;;;;;;6.25;2.55;;;;;;;;;;4942145;29;20047;-55
2023/06/15 11:47:37;;;;;;;9.20;2.70;;;;;;;;;;4924514;29;20040;-55
2023/06/15 11:50:06;;;;;;;5.55;2.65;;;;;;;;;;4945275;29;20047;-56
2023/06/15 11:52:34;;;;;;;7.13;2.65;;;;;;;;;;4944291;29;20505;-55
2023/06/15 11:55:16;;;;;;;5.78;2.75;;;;;;;;;;4933724;29;20042;-55
2023/06/15 11:57:45;;;;;;;5.55;2.63;;;;;;;;;;4934682;29;20354;-55
2023/06/15 12:00:15;;;;;;;8.23;2.83;;;;;;;;;;4935324;29;20044;-55
2023/06/15 12:02:44;;;;;;;9.25;3.20;;;;;;;;;;4930711;29;20510;-55
2023/06/15 12:05:17;;;;;;;6.25;2.83;;;;;;;;;;4940195;29;20089;-55
2023/06/15 12:07:44;;;;;;;4.90;2.35;;;;;;;;;;4925921;29;20043;-55
2023/06/15 12:10:11;;;;;;;5.78;2.40;;;;;;;;;;4922275;29;20114;-54
2023/06/15 12:12:40;;;;;;;8.20;2.90;;;;;;;;;;4937034;29;20111;-53
2023/06/15 12:15:09;;;;;;;5.10;2.83;;;;;;;;;;4943373;29;20525;-51
2023/06/15 12:17:39;;;;;;;6.43;2.45;;;;;;;;;;4938127;29;20035;-55
2023/06/15 12:20:10;;;;;;;7.28;3.15;;;;;;;;;;4941784;29;20391;-54
2023/06/15 12:22:37;;;;;;;6.93;2.67;;;;;;;;;;4953176;29;20117;-54
2023/06/15 12:25:06;;;;;;;4.95;2.42;;;;;;;;;;4952932;29;20051;-53
2023/06/15 12:27:36;;;;;;;6.22;2.50;;;;;;;;;;4932753;29;20449;-52
2023/06/15 12:30:16;;;;;;;5.85;2.50;;;;;;;;;;4942153;29;20043;-55
2023/06/15 12:32:45;;;;;;;6.35;2.83;;;;;;;;;;4918762;29;20098;-55
2023/06/15 12:35:38;;;;;;;7.03;2.50;;;;;;;;;;4938666;29;20076;-52
2023/06/15 12:38:09;;;;;;;10.00;2.83;;;;;;;;;;4915843;29;20058;-52
2023/06/15 12:40:43;;;;;;;22.20;4.35;;;;;;;;;;4923542;29;20043;-55
2023/06/15 12:43:09;;;;;;;5.90;2.53;;;31.30;1.00;;;;;;4927633;29;20061;-52
2023/06/15 12:45:35;;;;;;;11.80;3.15;;;33.90;1.00;;;;;;4937966;29;20718;-55
2023/06/15 12:48:01;;;;;;;5.28;2.38;;;35.90;1.00;;;;;;4927149;29;20501;-53
2023/06/15 12:50:29;;;;;;;21.33;4.28;;;37.30;1.00;;;;;;4935576;29;20232;-52
2023/06/15 12:52:58;;;;;;;6.25;2.58;;;38.50;1.00;;;;;;4926011;29;20039;-55
2023/06/15 12:55:26;;;;;;;5.68;2.85;;;40.00;1.00;;;;;;4910747;29;20043;-55
2023/06/15 12:57:55;;;;;;;5.25;2.33;;;41.40;1.00;;;;;;4933426;29;20114;-55
2023/06/15 13:00:25;;;;;;;6.50;2.47;;;42.80;1.00;;;;;;4919912;29;20445;-55
2023/06/15 13:02:51;;;;;;;4.95;2.40;;;43.50;1.00;;;;;;4938946;29;20044;-56
2023/06/15 13:05:18;;;;;;;6.18;2.20;;;44.20;1.00;;;;;;4927672;29;20051;-55
2023/06/15 13:07:45;;;;;;;6.00;2.33;;;44.90;1.00;;;;;;4929292;29;20047;-53
2023/06/15 13:10:12;;;;;;;6.07;2.60;;;45.00;1.00;;;;;;4923224;29;20054;-56
2023/06/15 13:12:41;;;;;;;5.03;2.50;;;45.90;1.00;;;;;;4947722;29;20050;-56
2023/06/15 13:15:07;;;;;;;8.73;2.30;;;46.30;99.90;;;;;;4940963;29;20254;-53
2023/06/15 13:17:37;;;;;;;4.97;2.45;;;47.00;99.90;;;;;;4939450;28;20181;-56
2023/06/15 13:20:07;;;;;;;5.80;2.28;;;47.30;99.90;;;;;;4895399;29;20162;-55
2023/06/15 13:22:34;;;;;;;5.22;2.22;;;47.40;99.90;;;;;;4924200;29;20098;-52
2023/06/15 13:25:00;;;;;;;5.65;2.03;;;47.70;99.90;;;;;;4925315;29;20391;-56
2023/06/15 13:27:26;;;;;;;5.18;2.00;;;48.10;99.90;;;;;;4940805;29;20039;-56
2023/06/15 13:29:51;;;;;;;5.05;2.10;;;48.60;99.90;;;;;;4945845;29;20036;-55
2023/06/15 13:32:18;;;;;;;7.15;2.78;;;49.10;99.90;;;;;;4941716;29;20085;-56
2023/06/15 13:34:43;;;;;;;4.20;2.05;;;49.20;99.90;;;;;;4938448;29;20378;-56
2023/06/15 13:37:11;;;;;;;6.45;2.50;;;50.00;99.90;;;;;;4949798;29;20043;-56
2023/06/15 13:39:38;;;;;;;4.70;2.10;;;50.00;99.90;;;;;;4945144;29;20059;-55
2023/06/15 13:42:07;;;;;;;5.68;2.85;;;50.50;99.90;;;;;;4948973;29;20035;-56
2023/06/15 13:44:32;;;;;;;4.85;2.05;;;50.50;99.90;;;;;;4920174;29;20065;-56
2023/06/15 13:46:58;;;;;;;5.18;2.25;;;50.20;99.90;;;;;;4940230;29;20494;-55
2023/06/15 13:49:24;;;;;;;4.93;2.30;;;50.20;99.90;;;;;;4904089;29;20305;-56
2023/06/15 13:51:50;;;;;;;4.97;2.00;;;50.70;99.90;;;;;;4923700;29;20068;-56
2023/06/15 13:54:16;;;;;;;6.07;2.20;;;50.70;99.90;;;;;;4935339;29;20378;-56
2023/06/15 13:56:42;;;;;;;9.27;2.60;;;50.70;99.90;;;;;;4938210;29;20046;-56
2023/06/15 13:59:08;;;;;;;5.55;2.35;;;50.30;99.90;;;;;;4942094;29;20040;-56
2023/06/15 14:01:34;;;;;;;5.25;2.38;;;50.70;99.90;;;;;;4933460;29;20125;-56
2023/06/15 14:04:00;;;;;;;5.68;2.38;;;50.90;99.90;;;;;;4918019;29;20040;-56
2023/06/15 14:06:26;;;;;;;6.03;2.40;;;50.70;99.90;;;;;;4940330;29;20510;-56
2023/06/15 14:08:52;;;;;;;5.65;2.63;;;51.00;99.90;;;;;;4923048;29;20063;-56
2023/06/15 14:11:18;;;;;;;5.50;2.10;;;51.00;99.90;;;;;;4937660;29;20036;-56
2023/06/15 14:13:50;;;;;;;7.32;2.40;;;50.70;99.90;;;;;;4939723;29;20401;-56
2023/06/15 14:16:20;;;;;;;5.35;2.33;;;51.10;99.90;;;;;;4945673;29;20050;-56
2023/06/15 14:18:51;;;;;;;8.25;2.50;;;51.40;99.90;;;;;;4920102;29;20040;-54
2023/06/15 14:21:17;;;;;;;5.75;2.30;;;51.90;99.90;;;;;;4910755;29;20033;-54
2023/06/15 14:23:44;;;;;;;4.97;2.08;;;51.90;99.90;;;;;;4942846;29;20074;-54
2023/06/15 14:26:11;;;;;;;6.00;2.40;;;51.60;99.90;;;;;;4945464;29;20051;-54
2023/06/15 14:28:36;;;;;;;4.32;2.03;;;51.40;99.90;;;;;;4923203;28;20493;-54
2023/06/15 14:31:03;;;;;;;5.90;2.15;;;51.70;99.90;;;;;;4934197;29;20039;-54